createdAt,value
2018-06-28T00:00:33.677Z,85.50
2018-06-28T00:03:01.292Z,86.20
2018-06-28T00:05:28.837Z,87.00
2018-06-28T00:07:56.515Z,87.30
2018-06-28T00:10:24.062Z,87.80
2018-06-28T00:12:51.699Z,88.00
2018-06-28T00:15:19.488Z,89.10
2018-06-28T00:17:47.096Z,89.40
2018-06-28T00:20:14.683Z,89.80
2018-06-28T00:22:42.353Z,90.10
2018-06-28T00:25:10.270Z,90.30
2018-06-28T00:27:37.952Z,90.60
2018-06-28T00:30:05.552Z,90.80
2018-06-28T00:32:33.367Z,91.30
2018-06-28T00:35:00.921Z,91.40
2018-06-28T00:37:28.528Z,91.70
2018-06-28T00:39:56.411Z,91.90
2018-06-28T00:42:24.100Z,91.90
2018-06-28T00:44:51.696Z,92.20
2018-06-28T00:47:19.240Z,92.50
2018-06-28T00:49:46.913Z,92.50
2018-06-28T00:52:14.502Z,92.60
2018-06-28T00:54:42.095Z,92.70
2018-06-28T00:57:09.801Z,92.70
2018-06-28T00:59:37.351Z,92.90
2018-06-28T01:02:05.135Z,93.00
2018-06-28T01:04:32.729Z,93.10
2018-06-28T01:07:00.292Z,93.20
2018-06-28T01:09:27.856Z,93.30
2018-06-28T01:11:55.420Z,93.60
2018-06-28T01:14:23.112Z,93.70
2018-06-28T01:16:50.740Z,93.90
2018-06-28T01:19:18.294Z,94.00
2018-06-28T01:21:45.904Z,94.20
2018-06-28T01:24:13.512Z,94.30
2018-06-28T01:26:41.152Z,94.40
2018-06-28T01:29:08.849Z,94.40
2018-06-28T01:31:36.409Z,94.60
2018-06-28T01:34:04.352Z,94.70
2018-06-28T01:36:31.980Z,94.80
2018-06-28T01:38:59.968Z,94.90
2018-06-28T01:41:38.044Z,95.00
2018-06-28T01:44:05.790Z,95.30
2018-06-28T01:46:33.867Z,95.00
2018-06-28T01:49:01.528Z,95.00
2018-06-28T01:51:29.499Z,95.10
2018-06-28T01:53:57.128Z,95.00
2018-06-28T01:56:25.070Z,95.10
2018-06-28T02:01:21.236Z,95.20
2018-06-28T02:03:48.865Z,95.30
2018-06-28T02:06:16.491Z,95.70
2018-06-28T02:08:44.144Z,95.50
2018-06-28T02:11:11.784Z,95.50
2018-06-28T02:13:39.465Z,95.50
2018-06-28T02:16:07.034Z,95.50
2018-06-28T02:18:34.590Z,95.70
2018-06-28T02:21:02.396Z,95.70
2018-06-28T02:23:30.129Z,95.70
2018-06-28T02:25:58.161Z,95.90
2018-06-28T02:28:25.704Z,96.00
2018-06-28T02:30:53.459Z,96.30
2018-06-28T02:33:21.001Z,96.30
2018-06-28T02:35:48.617Z,96.40
2018-06-28T02:38:16.396Z,96.40
2018-06-28T02:40:44.080Z,96.40
2018-06-28T02:43:11.716Z,96.60
2018-06-28T02:45:40.112Z,96.70
2018-06-28T02:48:07.781Z,96.80
2018-06-28T02:50:35.855Z,96.80
2018-06-28T02:53:03.600Z,96.80
2018-06-28T02:55:31.357Z,96.90
2018-06-28T02:57:58.917Z,97.00
2018-06-28T03:00:26.443Z,97.10
2018-06-28T03:02:54.107Z,97.10
2018-06-28T03:05:21.904Z,97.10
2018-06-28T03:07:49.533Z,97.60
2018-06-28T03:10:17.184Z,97.40
2018-06-28T03:12:44.894Z,97.40
2018-06-28T03:15:12.527Z,97.60
2018-06-28T03:20:08.078Z,97.70
2018-06-28T03:22:35.683Z,97.70
2018-06-28T03:25:03.266Z,97.60
2018-06-28T03:27:30.936Z,97.60
2018-06-28T03:29:58.613Z,97.70
2018-06-28T03:32:26.300Z,97.50
2018-06-28T03:34:53.952Z,97.50
2018-06-28T03:37:21.444Z,97.50
2018-06-28T03:39:49.155Z,97.50
2018-06-28T03:42:16.825Z,97.50
2018-06-28T03:44:44.572Z,97.60
2018-06-28T03:47:12.160Z,97.60
2018-06-28T03:49:39.858Z,97.60
2018-06-28T03:52:07.691Z,97.60
2018-06-28T03:54:35.275Z,97.50
2018-06-28T03:57:02.876Z,97.60
2018-06-28T03:59:30.467Z,97.60
2018-06-28T04:01:57.996Z,97.60
2018-06-28T04:04:25.719Z,97.70
2018-06-28T04:06:53.267Z,97.60
2018-06-28T04:09:20.795Z,97.60
2018-06-28T04:11:48.407Z,97.60
2018-06-28T04:14:15.984Z,97.80
2018-06-28T04:16:43.573Z,97.60
2018-06-28T04:19:11.171Z,97.70
2018-06-28T04:21:38.899Z,97.80
2018-06-28T04:24:06.480Z,97.60
2018-06-28T04:26:34.079Z,97.50
2018-06-28T04:29:01.634Z,98.10
2018-06-28T04:31:29.432Z,97.70
2018-06-28T04:33:57.198Z,97.80
2018-06-28T04:36:24.797Z,97.80
2018-06-28T04:38:52.532Z,97.70
2018-06-28T04:41:20.552Z,97.50
2018-06-28T04:43:48.087Z,97.40
2018-06-28T04:46:15.853Z,97.70
2018-06-28T04:48:43.648Z,97.50
2018-06-28T04:51:11.229Z,97.50
2018-06-28T04:53:38.760Z,97.70
2018-06-28T04:56:06.348Z,97.40
2018-06-28T04:58:33.876Z,97.50
2018-06-28T05:01:01.685Z,97.50
2018-06-28T05:03:29.574Z,97.40
2018-06-28T05:05:57.237Z,97.60
2018-06-28T05:08:24.968Z,97.00
2018-06-28T05:10:52.645Z,97.40
2018-06-28T05:13:20.589Z,96.90
2018-06-28T05:15:48.248Z,96.80
2018-06-28T05:18:15.877Z,96.60
2018-06-28T05:20:43.568Z,96.70
2018-06-28T05:25:38.636Z,96.40
2018-06-28T05:28:06.540Z,95.60
2018-06-28T05:30:34.196Z,95.60
2018-06-28T05:33:01.895Z,94.90
2018-06-28T05:35:29.627Z,95.00
2018-06-28T05:37:57.354Z,95.30
2018-06-28T05:40:24.925Z,95.10
2018-06-28T05:42:52.521Z,95.10
2018-06-28T05:45:20.456Z,94.80
2018-06-28T05:47:48.025Z,94.20
2018-06-28T05:52:43.105Z,93.60
2018-06-28T05:57:38.287Z,93.40
2018-06-28T06:00:06.136Z,93.90
2018-06-28T06:02:34.211Z,93.60
2018-06-28T06:05:02.012Z,92.90
2018-06-28T06:07:29.668Z,92.40
2018-06-28T06:09:57.226Z,92.80
2018-06-28T06:12:24.776Z,92.50
2018-06-28T06:14:52.372Z,92.30
2018-06-28T06:17:20.264Z,92.00
2018-06-28T06:22:15.544Z,92.10
2018-06-28T06:24:43.196Z,91.60
2018-06-28T06:27:10.851Z,91.90
2018-06-28T06:29:38.492Z,91.40
2018-06-28T06:32:06.307Z,91.00
2018-06-28T06:34:33.872Z,90.60
2018-06-28T06:37:01.972Z,90.70
2018-06-28T06:39:29.524Z,90.00
2018-06-28T06:41:57.107Z,89.60
2018-06-28T06:44:24.955Z,87.80
2018-06-28T06:46:52.651Z,85.80
2018-06-28T06:49:20.279Z,84.70
2018-06-28T06:51:47.958Z,65.00
2018-06-28T06:54:15.519Z,47.60
2018-06-28T06:56:43.123Z,40.00
2018-06-28T06:59:10.743Z,34.70
2018-06-28T07:01:38.318Z,31.20
2018-06-28T07:04:05.940Z,29.20
2018-06-28T07:06:33.495Z,27.90
2018-06-28T07:09:01.048Z,26.90
2018-06-28T07:11:28.609Z,26.40
2018-06-28T07:13:56.192Z,25.50
2018-06-28T07:16:23.881Z,24.70
2018-06-28T07:18:51.504Z,23.90
2018-06-28T07:21:19.297Z,23.40
2018-06-28T07:23:46.957Z,23.10
2018-06-28T07:26:14.564Z,22.40
2018-06-28T07:28:42.127Z,21.60
2018-06-28T07:31:09.707Z,21.80
2018-06-28T07:33:37.319Z,21.50
2018-06-28T07:36:04.936Z,20.60
2018-06-28T07:38:32.720Z,20.70
2018-06-28T07:41:00.339Z,20.80
2018-06-28T07:43:27.916Z,20.00
2018-06-28T07:45:55.493Z,20.20
2018-06-28T07:48:23.068Z,19.90
2018-06-28T07:50:50.665Z,20.10
2018-06-28T07:53:18.271Z,19.30
2018-06-28T07:55:45.813Z,19.50
2018-06-28T07:58:13.464Z,19.30
2018-06-28T08:00:41.133Z,19.00
2018-06-28T08:03:08.839Z,18.70
2018-06-28T08:05:36.400Z,19.20
2018-06-28T08:08:03.963Z,18.80
2018-06-28T08:10:31.524Z,18.60
2018-06-28T08:12:59.079Z,18.10
2018-06-28T08:15:27.204Z,18.00
2018-06-28T08:17:54.956Z,18.00
2018-06-28T08:22:50.385Z,18.00
2018-06-28T08:25:17.996Z,17.60
2018-06-28T08:27:45.708Z,17.90
2018-06-28T08:30:13.401Z,17.30
2018-06-28T08:32:41.024Z,17.40
2018-06-28T08:35:08.600Z,17.10
2018-06-28T08:37:36.201Z,17.10
2018-06-28T08:40:04.152Z,17.00
2018-06-28T08:42:31.740Z,16.70
2018-06-28T08:44:59.436Z,16.70
2018-06-28T08:47:27.066Z,17.00
2018-06-28T08:49:54.782Z,16.70
2018-06-28T08:52:22.433Z,17.00
2018-06-28T08:54:49.989Z,16.70
2018-06-28T08:59:45.039Z,16.80
2018-06-28T09:02:13.596Z,16.70
2018-06-28T09:04:41.195Z,16.80
2018-06-28T09:07:08.762Z,16.50
2018-06-28T09:09:36.362Z,16.80
2018-06-28T09:12:04.154Z,16.50
2018-06-28T09:14:31.811Z,16.70
2018-06-28T09:16:59.426Z,17.20
2018-06-28T09:19:27.196Z,17.60
2018-06-28T09:21:54.933Z,17.30
2018-06-28T09:24:22.523Z,17.30
2018-06-28T09:26:50.214Z,16.80
2018-06-28T09:29:17.795Z,16.80
2018-06-28T09:31:45.377Z,16.80
2018-06-28T09:34:12.919Z,17.50
2018-06-28T09:36:40.685Z,17.70
2018-06-28T09:39:09.872Z,17.20
2018-06-28T09:41:38.868Z,16.90
2018-06-28T09:44:06.510Z,16.50
2018-06-28T09:46:34.284Z,16.80
2018-06-28T09:49:01.808Z,16.80
2018-06-28T09:51:29.424Z,17.20
2018-06-28T09:53:57.040Z,16.20
2018-06-28T09:56:24.591Z,16.80
2018-06-28T09:58:52.199Z,16.50
2018-06-28T10:01:19.752Z,16.20
2018-06-28T10:03:47.547Z,16.30
2018-06-28T10:06:15.082Z,16.80
2018-06-28T10:08:42.887Z,16.80
2018-06-28T10:11:10.490Z,17.30
2018-06-28T10:13:38.445Z,16.90
2018-06-28T10:16:06.082Z,16.40
2018-06-28T10:18:33.622Z,16.50
2018-06-28T10:21:01.228Z,16.50
2018-06-28T10:23:29.038Z,16.80
2018-06-28T10:25:56.639Z,16.50
2018-06-28T10:28:31.053Z,16.20
2018-06-28T10:30:58.671Z,16.20
2018-06-28T10:33:26.594Z,16.90
2018-06-28T10:35:54.219Z,17.10
2018-06-28T10:38:21.880Z,17.50
2018-06-28T10:40:49.606Z,17.20
2018-06-28T10:43:17.244Z,17.10
2018-06-28T10:45:44.892Z,16.80
2018-06-28T10:48:12.459Z,17.60
2018-06-28T10:50:40.045Z,17.10
2018-06-28T10:53:07.695Z,17.60
2018-06-28T10:55:35.276Z,17.70
2018-06-28T10:58:02.839Z,18.10
2018-06-28T11:00:30.436Z,20.00
2018-06-28T11:02:57.985Z,21.60
2018-06-28T11:05:25.633Z,22.30
2018-06-28T11:07:54.033Z,23.50
2018-06-28T11:10:21.598Z,24.10
2018-06-28T11:12:49.152Z,24.90
2018-06-28T11:15:16.721Z,26.00
2018-06-28T11:17:44.456Z,26.00
2018-06-28T11:20:12.108Z,26.40
2018-06-28T11:22:40.021Z,27.80
2018-06-28T11:25:07.747Z,26.90
2018-06-28T11:27:35.308Z,28.00
2018-06-28T11:30:03.540Z,27.90
2018-06-28T11:32:31.096Z,28.10
2018-06-28T11:34:59.068Z,28.40
2018-06-28T11:37:26.795Z,28.40
2018-06-28T11:39:54.488Z,28.90
2018-06-28T11:42:22.088Z,28.30
2018-06-28T11:44:49.696Z,28.40
2018-06-28T11:47:17.350Z,29.50
2018-06-28T11:49:44.935Z,28.80
2018-06-28T11:52:12.581Z,29.10
2018-06-28T11:54:40.166Z,29.80
2018-06-28T11:57:07.748Z,29.20
2018-06-28T11:59:35.311Z,29.10
2018-06-28T12:02:02.936Z,29.20
2018-06-28T12:04:30.508Z,29.70
2018-06-28T12:06:58.064Z,29.60
2018-06-28T12:09:25.931Z,29.10
2018-06-28T12:11:53.492Z,29.70
2018-06-28T12:14:21.052Z,29.90
2018-06-28T12:16:48.680Z,30.60
2018-06-28T12:19:16.325Z,30.00
2018-06-28T12:21:43.932Z,29.60
2018-06-28T12:24:11.492Z,30.30
2018-06-28T12:26:39.266Z,31.40
2018-06-28T12:29:06.900Z,30.20
2018-06-28T12:31:35.318Z,29.80
2018-06-28T12:34:03.552Z,30.60
2018-06-28T12:36:32.901Z,30.10
2018-06-28T12:39:08.125Z,31.80
2018-06-28T12:41:37.472Z,30.10
2018-06-28T12:44:05.428Z,31.10
2018-06-28T12:47:53.772Z,30.60
2018-06-28T12:50:21.479Z,30.50
2018-06-28T12:52:51.823Z,31.10
2018-06-28T12:55:35.631Z,30.20
2018-06-28T12:58:05.857Z,30.70
2018-06-28T13:00:33.424Z,31.10
2018-06-28T13:03:01.885Z,31.50
2018-06-28T13:05:29.432Z,31.30
2018-06-28T13:07:57.187Z,31.50
2018-06-28T13:10:25.148Z,31.30
2018-06-28T13:12:55.711Z,32.30
2018-06-28T13:15:23.259Z,31.80
2018-06-28T13:17:50.823Z,31.10
2018-06-28T13:20:18.430Z,31.30
2018-06-28T13:22:46.285Z,31.50
2018-06-28T13:25:13.883Z,31.30
2018-06-28T13:27:41.463Z,31.40
2018-06-28T13:30:09.730Z,32.00
2018-06-28T13:32:37.380Z,31.40
2018-06-28T13:35:05.172Z,31.30
2018-06-28T13:37:32.773Z,31.10
2018-06-28T13:40:00.458Z,32.10
2018-06-28T13:42:28.067Z,32.20
2018-06-28T13:44:56.789Z,32.20
2018-06-28T13:47:24.567Z,32.60
2018-06-28T13:49:52.139Z,31.30
2018-06-28T13:52:19.749Z,31.70
2018-06-28T13:54:47.339Z,31.90
2018-06-28T13:57:14.931Z,32.30
2018-06-28T13:59:42.463Z,32.80
2018-06-28T14:02:10.180Z,32.00
2018-06-28T14:04:37.735Z,32.80
2018-06-28T14:07:05.381Z,32.60
2018-06-28T14:09:33.013Z,32.90
2018-06-28T14:12:00.633Z,32.90
2018-06-28T14:14:28.238Z,33.20
2018-06-28T14:16:56.100Z,33.20
2018-06-28T14:19:23.749Z,33.50
2018-06-28T14:21:51.397Z,33.10
2018-06-28T14:24:19.016Z,32.90
2018-06-28T14:26:46.915Z,32.20
2018-06-28T14:29:14.450Z,32.30
2018-06-28T14:31:42.028Z,33.40
2018-06-28T14:34:09.637Z,32.90
2018-06-28T14:36:37.197Z,33.10
2018-06-28T14:39:06.945Z,33.00
2018-06-28T14:41:35.693Z,32.70
2018-06-28T14:44:03.936Z,32.90
2018-06-28T14:46:31.484Z,32.80
2018-06-28T14:48:59.059Z,33.50
2018-06-28T14:51:26.649Z,34.10
2018-06-28T14:53:54.210Z,34.40
2018-06-28T14:56:21.788Z,34.00
2018-06-28T14:58:49.361Z,33.30
2018-06-28T15:01:16.983Z,33.50
2018-06-28T15:03:44.567Z,34.00
2018-06-28T15:06:12.143Z,34.30
2018-06-28T15:08:39.784Z,34.50
2018-06-28T15:11:07.682Z,34.10
2018-06-28T15:13:36.284Z,34.10
2018-06-28T15:16:04.137Z,34.10
2018-06-28T15:18:31.750Z,34.50
2018-06-28T15:20:59.380Z,34.40
2018-06-28T15:23:26.975Z,35.00
2018-06-28T15:25:54.548Z,34.90
2018-06-28T15:28:22.128Z,34.80
2018-06-28T15:30:49.709Z,34.80
2018-06-28T15:33:18.002Z,34.90
2018-06-28T15:35:45.583Z,34.60
2018-06-28T15:38:13.152Z,34.60
2018-06-28T15:40:40.710Z,34.90
2018-06-28T15:43:08.267Z,35.10
2018-06-28T15:45:36.061Z,34.80
2018-06-28T15:48:03.720Z,34.70
2018-06-28T15:50:31.383Z,35.20
2018-06-28T15:53:05.813Z,35.10
2018-06-28T15:55:33.657Z,35.00
2018-06-28T15:58:01.271Z,35.10
2018-06-28T16:00:28.938Z,34.90
2018-06-28T16:05:24.084Z,35.00
2018-06-28T16:07:52.222Z,34.80
2018-06-28T16:10:20.367Z,35.00
2018-06-28T16:12:48.332Z,35.10
2018-06-28T16:15:21.257Z,34.90
2018-06-28T16:17:49.364Z,35.00
2018-06-28T16:20:17.152Z,35.10
2018-06-28T16:22:44.843Z,35.30
2018-06-28T16:27:40.040Z,35.50
2018-06-28T16:30:07.970Z,35.40
2018-06-28T16:32:35.728Z,35.20
2018-06-28T16:35:03.496Z,35.70
2018-06-28T16:37:31.097Z,35.90
2018-06-28T16:39:58.682Z,35.80
2018-06-28T16:42:26.236Z,36.00
2018-06-28T16:44:53.976Z,36.20
2018-06-28T16:47:21.690Z,36.80
2018-06-28T16:49:49.691Z,36.30
2018-06-28T16:52:17.360Z,36.10
2018-06-28T16:54:44.996Z,36.20
2018-06-28T16:57:12.616Z,36.10
2018-06-28T16:59:40.388Z,36.10
2018-06-28T17:02:07.885Z,36.20
2018-06-28T17:04:35.487Z,36.70
2018-06-28T17:07:03.298Z,37.00
2018-06-28T17:09:30.957Z,37.30
2018-06-28T17:11:58.544Z,36.90
2018-06-28T17:14:26.203Z,36.80
2018-06-28T17:16:54.230Z,37.00
2018-06-28T17:19:22.447Z,36.90
2018-06-28T17:21:52.684Z,37.10
2018-06-28T17:24:21.988Z,37.60
2018-06-28T17:26:49.649Z,37.80
2018-06-28T17:29:17.256Z,38.00
2018-06-28T17:31:44.947Z,38.20
2018-06-28T17:34:12.621Z,38.30
2018-06-28T17:36:40.217Z,38.40
2018-06-28T17:39:08.471Z,38.60
2018-06-28T17:41:36.752Z,38.80
2018-06-28T17:44:04.607Z,38.80
2018-06-28T17:46:32.276Z,39.00
2018-06-28T17:48:59.992Z,39.10
2018-06-28T17:51:27.857Z,39.20
2018-06-28T17:53:55.491Z,40.00
2018-06-28T17:56:23.115Z,39.60
2018-06-28T17:58:50.732Z,39.60
2018-06-28T18:01:18.331Z,39.80
2018-06-28T18:03:46.376Z,39.80
2018-06-28T18:06:13.962Z,40.00
2018-06-28T18:08:41.621Z,40.20
2018-06-28T18:11:09.235Z,40.10
2018-06-28T18:13:38.372Z,40.30
2018-06-28T18:16:06.131Z,40.60
2018-06-28T18:18:33.772Z,40.40
2018-06-28T18:21:01.374Z,40.60
2018-06-28T18:23:29.120Z,40.40
2018-06-28T18:25:57.179Z,40.40
2018-06-28T18:28:24.916Z,40.50
2018-06-28T18:30:52.530Z,40.90
2018-06-28T18:33:20.139Z,41.10
2018-06-28T18:35:47.708Z,41.30
2018-06-28T18:38:15.493Z,41.40
2018-06-28T18:40:43.238Z,41.70
2018-06-28T18:43:10.819Z,41.70
2018-06-28T18:45:38.592Z,41.80
2018-06-28T18:48:06.523Z,42.00
2018-06-28T18:50:34.915Z,42.10
2018-06-28T18:53:03.214Z,42.30
2018-06-28T18:55:30.856Z,42.50
2018-06-28T18:57:58.448Z,42.40
2018-06-28T19:00:26.056Z,42.80
2018-06-28T19:02:53.718Z,42.70
2018-06-28T19:05:21.337Z,42.90
2018-06-28T19:07:51.233Z,42.80
2018-06-28T19:10:24.520Z,43.20
2018-06-28T19:12:52.153Z,43.30
2018-06-28T19:15:25.460Z,43.50
2018-06-28T19:17:53.057Z,43.50
2018-06-28T19:20:20.660Z,43.60
2018-06-28T19:23:53.343Z,43.90
2018-06-28T19:26:20.983Z,43.90
2018-06-28T19:28:48.966Z,44.40
2018-06-28T19:31:22.127Z,44.20
2018-06-28T19:33:49.904Z,44.30
2018-06-28T19:36:17.713Z,44.50
2018-06-28T19:38:50.987Z,44.50
2018-06-28T19:41:24.524Z,44.70
2018-06-28T19:43:52.512Z,44.90
2018-06-28T19:46:20.837Z,45.90
2018-06-28T19:48:48.553Z,45.60
2018-06-28T19:51:21.787Z,45.70
2018-06-28T19:53:50.305Z,46.00
2018-06-28T19:56:17.952Z,46.50
2018-06-28T19:58:45.820Z,46.70
2018-06-28T20:01:19.045Z,46.80
2018-06-28T20:03:52.249Z,47.20
2018-06-28T20:11:15.016Z,48.30
2018-06-28T20:13:49.246Z,49.50
2018-06-28T20:16:22.536Z,49.00
2018-06-28T20:19:59.943Z,49.40
2018-06-28T20:22:27.548Z,49.80
2018-06-28T20:24:55.283Z,49.70
2018-06-28T20:27:28.853Z,50.00
2018-06-28T20:30:02.193Z,50.60
2018-06-28T20:32:35.463Z,50.50
2018-06-28T20:35:03.450Z,50.50
2018-06-28T20:37:31.031Z,51.60
2018-06-28T20:39:58.768Z,51.70
2018-06-28T20:42:26.577Z,52.20
2018-06-28T20:47:22.410Z,52.80
2018-06-28T20:49:50.112Z,53.00
2018-06-28T20:52:17.727Z,53.40
2018-06-28T20:54:45.388Z,52.90
2018-06-28T20:57:13.056Z,53.70
2018-06-28T20:59:40.677Z,53.80
2018-06-28T21:02:08.364Z,54.10
2018-06-28T21:04:36.035Z,54.20
2018-06-28T21:07:03.866Z,55.10
2018-06-28T21:09:31.839Z,55.30
2018-06-28T21:12:00.564Z,55.00
2018-06-28T21:14:28.472Z,55.80
2018-06-28T21:16:58.483Z,56.50
2018-06-28T21:21:53.751Z,57.50
2018-06-28T21:24:21.324Z,57.90
2018-06-28T21:26:48.956Z,58.20
2018-06-28T21:29:16.556Z,59.10
2018-06-28T21:31:44.148Z,60.00
2018-06-28T21:34:11.832Z,59.90
2018-06-28T21:36:39.589Z,61.10
2018-06-28T21:39:08.387Z,60.40
2018-06-28T21:41:36.111Z,60.20
2018-06-28T21:44:03.725Z,61.60
2018-06-28T21:46:31.297Z,61.50
2018-06-28T21:48:59.108Z,62.00
2018-06-28T21:51:26.724Z,62.50
2018-06-28T21:53:54.320Z,63.10
2018-06-28T21:56:21.938Z,64.00
2018-06-28T21:58:49.535Z,64.80
2018-06-28T22:01:17.160Z,64.00
2018-06-28T22:03:44.751Z,64.50
2018-06-28T22:06:12.474Z,65.30
2018-06-28T22:08:41.168Z,65.50
2018-06-28T22:11:09.613Z,65.90
2018-06-28T22:13:37.220Z,66.80
2018-06-28T22:16:04.840Z,66.50
2018-06-28T22:18:32.429Z,67.10
2018-06-28T22:21:00.055Z,67.60
2018-06-28T22:23:27.680Z,67.30
2018-06-28T22:25:55.296Z,67.90
2018-06-28T22:28:22.902Z,69.10
2018-06-28T22:30:50.866Z,68.80
2018-06-28T22:33:18.629Z,69.60
2018-06-28T22:35:46.300Z,70.30
2018-06-28T22:38:13.958Z,70.70
2018-06-28T22:43:09.326Z,71.30
2018-06-28T22:45:36.903Z,71.70
2018-06-28T22:48:05.000Z,71.80
2018-06-28T22:50:32.687Z,71.40
2018-06-28T22:53:00.241Z,71.40
2018-06-28T22:55:27.835Z,71.60
2018-06-28T22:57:55.396Z,71.60
2018-06-28T23:00:29.424Z,71.50
2018-06-28T23:02:57.155Z,71.70
2018-06-28T23:05:25.517Z,71.90
2018-06-28T23:07:55.480Z,73.10
2018-06-28T23:12:51.379Z,74.10
2018-06-28T23:15:19.257Z,74.60
2018-06-28T23:17:47.335Z,74.30
2018-06-28T23:22:44.687Z,75.00
2018-06-28T23:25:13.268Z,76.10
2018-06-28T23:27:41.490Z,76.10
2018-06-28T23:30:09.159Z,75.60
2018-06-28T23:32:37.249Z,76.90
2018-06-28T23:35:05.792Z,76.90
2018-06-28T23:37:33.625Z,77.00
2018-06-28T23:40:01.541Z,78.60
2018-06-28T23:42:29.156Z,79.00
2018-06-28T23:44:56.934Z,79.60
2018-06-28T23:47:24.532Z,79.60
2018-06-28T23:49:52.210Z,80.00
2018-06-28T23:52:20.301Z,80.20
2018-06-28T23:54:47.862Z,80.40
2018-06-28T23:57:15.463Z,81.50
2018-06-28T23:59:43.044Z,81.50
